sensor_id;sensor_type;location;lat;lon;timestamp;P1;durP1;ratioP1;P2;durP2;ratioP2
40595;SDS011;26304;48.794;9.820;2024-01-07T00:00:00;1.83;;;1.73;;
40595;SDS011;26304;48.794;9.820;2024-01-07T00:02:23;2.10;;;2.00;;
40595;SDS011;26304;48.794;9.820;2024-01-07T00:04:47;2.25;;;2.08;;
40595;SDS011;26304;48.794;9.820;2024-01-07T00:07:09;1.83;;;1.73;;
40595;SDS011;26304;48.794;9.820;2024-01-07T00:09:32;1.88;;;1.77;;
40595;SDS011;26304;48.794;9.820;2024-01-07T00:11:54;1.88;;;1.77;;
40595;SDS011;26304;48.794;9.820;2024-01-07T00:14:17;1.77;;;1.67;;
40595;SDS011;26304;48.794;9.820;2024-01-07T00:16:39;1.80;;;1.70;;
40595;SDS011;26304;48.794;9.820;2024-01-07T00:19:02;1.90;;;1.70;;
40595;SDS011;26304;48.794;9.820;2024-01-07T00:21:26;2.35;;;1.88;;
40595;SDS011;26304;48.794;9.820;2024-01-07T00:23:49;1.85;;;1.50;;
40595;SDS011;26304;48.794;9.820;2024-01-07T00:26:12;1.70;;;1.60;;
40595;SDS011;26304;48.794;9.820;2024-01-07T00:28:35;1.80;;;1.70;;
40595;SDS011;26304;48.794;9.820;2024-01-07T00:30:57;1.80;;;1.70;;
40595;SDS011;26304;48.794;9.820;2024-01-07T00:33:20;1.95;;;1.85;;
40595;SDS011;26304;48.794;9.820;2024-01-07T00:35:43;1.88;;;1.77;;
40595;SDS011;26304;48.794;9.820;2024-01-07T00:38:07;2.20;;;2.00;;
40595;SDS011;26304;48.794;9.820;2024-01-07T00:40:29;1.70;;;1.60;;
40595;SDS011;26304;48.794;9.820;2024-01-07T00:42:52;1.75;;;1.65;;
40595;SDS011;26304;48.794;9.820;2024-01-07T00:45:14;2.20;;;2.00;;
40595;SDS011;26304;48.794;9.820;2024-01-07T00:47:37;1.90;;;1.80;;
40595;SDS011;26304;48.794;9.820;2024-01-07T00:50:00;1.63;;;1.52;;
40595;SDS011;26304;48.794;9.820;2024-01-07T00:52:22;1.70;;;1.60;;
40595;SDS011;26304;48.794;9.820;2024-01-07T00:54:46;1.92;;;1.83;;
40595;SDS011;26304;48.794;9.820;2024-01-07T00:57:10;1.85;;;1.75;;
40595;SDS011;26304;48.794;9.820;2024-01-07T00:59:33;2.00;;;1.90;;
40595;SDS011;26304;48.794;9.820;2024-01-07T01:01:55;2.10;;;2.00;;
40595;SDS011;26304;48.794;9.820;2024-01-07T01:04:18;1.73;;;1.63;;
40595;SDS011;26304;48.794;9.820;2024-01-07T01:06:41;1.83;;;1.73;;
40595;SDS011;26304;48.794;9.820;2024-01-07T01:09:03;1.88;;;1.77;;
40595;SDS011;26304;48.794;9.820;2024-01-07T01:11:28;1.77;;;1.67;;
40595;SDS011;26304;48.794;9.820;2024-01-07T01:13:50;1.70;;;1.60;;
40595;SDS011;26304;48.794;9.820;2024-01-07T01:16:13;1.70;;;1.60;;
40595;SDS011;26304;48.794;9.820;2024-01-07T01:18:35;1.58;;;1.48;;
40595;SDS011;26304;48.794;9.820;2024-01-07T01:20:58;1.55;;;1.45;;
40595;SDS011;26304;48.794;9.820;2024-01-07T01:23:20;1.70;;;1.60;;
40595;SDS011;26304;48.794;9.820;2024-01-07T01:25:43;1.88;;;1.77;;
40595;SDS011;26304;48.794;9.820;2024-01-07T01:28:07;2.03;;;1.80;;
40595;SDS011;26304;48.794;9.820;2024-01-07T01:30:29;1.55;;;1.45;;
40595;SDS011;26304;48.794;9.820;2024-01-07T01:32:52;1.77;;;1.67;;
40595;SDS011;26304;48.794;9.820;2024-01-07T01:35:15;1.88;;;1.77;;
40595;SDS011;26304;48.794;9.820;2024-01-07T01:37:38;1.30;;;1.30;;
40595;SDS011;26304;48.794;9.820;2024-01-07T01:40:00;1.63;;;1.40;;
40595;SDS011;26304;48.794;9.820;2024-01-07T01:42:24;1.88;;;1.77;;
40595;SDS011;26304;48.794;9.820;2024-01-07T01:44:48;1.70;;;1.60;;
40595;SDS011;26304;48.794;9.820;2024-01-07T01:47:11;1.63;;;1.52;;
40595;SDS011;26304;48.794;9.820;2024-01-07T01:49:33;1.70;;;1.60;;
40595;SDS011;26304;48.794;9.820;2024-01-07T01:51:59;1.85;;;1.73;;
40595;SDS011;26304;48.794;9.820;2024-01-07T01:54:21;1.42;;;1.33;;
40595;SDS011;26304;48.794;9.820;2024-01-07T01:56:44;1.63;;;1.50;;
40595;SDS011;26304;48.794;9.820;2024-01-07T01:59:07;1.90;;;1.80;;
40595;SDS011;26304;48.794;9.820;2024-01-07T02:01:31;1.70;;;1.60;;
40595;SDS011;26304;48.794;9.820;2024-01-07T02:03:54;1.70;;;1.60;;
40595;SDS011;26304;48.794;9.820;2024-01-07T02:06:16;1.80;;;1.70;;
40595;SDS011;26304;48.794;9.820;2024-01-07T02:08:39;1.52;;;1.45;;
40595;SDS011;26304;48.794;9.820;2024-01-07T02:11:13;1.77;;;1.67;;
40595;SDS011;26304;48.794;9.820;2024-01-07T02:13:36;1.60;;;1.50;;
40595;SDS011;26304;48.794;9.820;2024-01-07T02:15:59;1.67;;;1.58;;
40595;SDS011;26304;48.794;9.820;2024-01-07T02:18:23;1.80;;;1.70;;
40595;SDS011;26304;48.794;9.820;2024-01-07T02:20:45;1.77;;;1.67;;
40595;SDS011;26304;48.794;9.820;2024-01-07T02:23:08;1.67;;;1.58;;
40595;SDS011;26304;48.794;9.820;2024-01-07T02:25:35;1.70;;;1.50;;
40595;SDS011;26304;48.794;9.820;2024-01-07T02:27:58;1.70;;;1.60;;
40595;SDS011;26304;48.794;9.820;2024-01-07T02:30:19;1.85;;;1.75;;
40595;SDS011;26304;48.794;9.820;2024-01-07T02:32:42;1.80;;;1.70;;
40595;SDS011;26304;48.794;9.820;2024-01-07T02:35:05;1.52;;;1.40;;
40595;SDS011;26304;48.794;9.820;2024-01-07T02:37:28;1.77;;;1.67;;
40595;SDS011;26304;48.794;9.820;2024-01-07T02:39:50;1.73;;;1.63;;
40595;SDS011;26304;48.794;9.820;2024-01-07T02:42:14;1.70;;;1.60;;
40595;SDS011;26304;48.794;9.820;2024-01-07T02:44:37;1.50;;;1.40;;
40595;SDS011;26304;48.794;9.820;2024-01-07T02:46:59;1.52;;;1.42;;
40595;SDS011;26304;48.794;9.820;2024-01-07T02:49:22;1.80;;;1.70;;
40595;SDS011;26304;48.794;9.820;2024-01-07T02:51:44;1.70;;;1.60;;
40595;SDS011;26304;48.794;9.820;2024-01-07T02:54:10;1.70;;;1.60;;
40595;SDS011;26304;48.794;9.820;2024-01-07T02:56:32;1.60;;;1.50;;
40595;SDS011;26304;48.794;9.820;2024-01-07T02:58:56;1.70;;;1.60;;
40595;SDS011;26304;48.794;9.820;2024-01-07T03:01:21;1.70;;;1.60;;
40595;SDS011;26304;48.794;9.820;2024-01-07T03:03:43;1.73;;;1.63;;
40595;SDS011;26304;48.794;9.820;2024-01-07T03:06:06;1.60;;;1.50;;
40595;SDS011;26304;48.794;9.820;2024-01-07T03:08:29;1.48;;;1.38;;
40595;SDS011;26304;48.794;9.820;2024-01-07T03:10:52;2.03;;;1.80;;
40595;SDS011;26304;48.794;9.820;2024-01-07T03:13:14;1.85;;;1.65;;
40595;SDS011;26304;48.794;9.820;2024-01-07T03:15:38;1.80;;;1.70;;
40595;SDS011;26304;48.794;9.820;2024-01-07T03:18:00;1.55;;;1.45;;
40595;SDS011;26304;48.794;9.820;2024-01-07T03:20:23;1.65;;;1.55;;
40595;SDS011;26304;48.794;9.820;2024-01-07T03:22:45;1.50;;;1.40;;
40595;SDS011;26304;48.794;9.820;2024-01-07T03:25:08;2.00;;;1.55;;
40595;SDS011;26304;48.794;9.820;2024-01-07T03:27:31;1.80;;;1.70;;
40595;SDS011;26304;48.794;9.820;2024-01-07T03:29:53;1.52;;;1.42;;
40595;SDS011;26304;48.794;9.820;2024-01-07T03:32:17;1.73;;;1.63;;
40595;SDS011;26304;48.794;9.820;2024-01-07T03:34:40;1.77;;;1.67;;
40595;SDS011;26304;48.794;9.820;2024-01-07T03:37:02;1.58;;;1.40;;
40595;SDS011;26304;48.794;9.820;2024-01-07T03:39:25;1.50;;;1.40;;
40595;SDS011;26304;48.794;9.820;2024-01-07T03:41:47;1.75;;;1.65;;
40595;SDS011;26304;48.794;9.820;2024-01-07T03:44:10;1.50;;;1.40;;
40595;SDS011;26304;48.794;9.820;2024-01-07T03:46:32;1.70;;;1.60;;
40595;SDS011;26304;48.794;9.820;2024-01-07T03:48:56;1.70;;;1.60;;
40595;SDS011;26304;48.794;9.820;2024-01-07T03:51:18;1.60;;;1.50;;
40595;SDS011;26304;48.794;9.820;2024-01-07T03:53:41;1.60;;;1.50;;
40595;SDS011;26304;48.794;9.820;2024-01-07T03:56:04;1.63;;;1.50;;
40595;SDS011;26304;48.794;9.820;2024-01-07T03:58:27;1.50;;;1.40;;
40595;SDS011;26304;48.794;9.820;2024-01-07T04:00:49;1.70;;;1.60;;
40595;SDS011;26304;48.794;9.820;2024-01-07T04:03:12;1.77;;;1.60;;
40595;SDS011;26304;48.794;9.820;2024-01-07T04:05:36;1.52;;;1.42;;
40595;SDS011;26304;48.794;9.820;2024-01-07T04:07:59;1.65;;;1.55;;
40595;SDS011;26304;48.794;9.820;2024-01-07T04:10:22;1.60;;;1.50;;
40595;SDS011;26304;48.794;9.820;2024-01-07T04:12:44;1.48;;;1.38;;
40595;SDS011;26304;48.794;9.820;2024-01-07T04:15:07;1.45;;;1.40;;
40595;SDS011;26304;48.794;9.820;2024-01-07T04:17:30;1.55;;;1.45;;
40595;SDS011;26304;48.794;9.820;2024-01-07T04:19:53;1.70;;;1.60;;
40595;SDS011;26304;48.794;9.820;2024-01-07T04:22:17;1.30;;;1.30;;
40595;SDS011;26304;48.794;9.820;2024-01-07T04:24:40;1.55;;;1.45;;
40595;SDS011;26304;48.794;9.820;2024-01-07T04:27:03;1.58;;;1.48;;
40595;SDS011;26304;48.794;9.820;2024-01-07T04:29:26;1.60;;;1.50;;
40595;SDS011;26304;48.794;9.820;2024-01-07T04:31:48;1.85;;;1.75;;
40595;SDS011;26304;48.794;9.820;2024-01-07T04:34:11;1.50;;;1.40;;
40595;SDS011;26304;48.794;9.820;2024-01-07T04:36:33;1.33;;;1.23;;
40595;SDS011;26304;48.794;9.820;2024-01-07T04:38:57;1.70;;;1.60;;
40595;SDS011;26304;48.794;9.820;2024-01-07T04:41:20;1.50;;;1.40;;
40595;SDS011;26304;48.794;9.820;2024-01-07T04:43:43;1.70;;;1.60;;
40595;SDS011;26304;48.794;9.820;2024-01-07T04:46:05;1.60;;;1.50;;
40595;SDS011;26304;48.794;9.820;2024-01-07T04:48:28;1.58;;;1.40;;
40595;SDS011;26304;48.794;9.820;2024-01-07T04:50:50;1.52;;;1.42;;
40595;SDS011;26304;48.794;9.820;2024-01-07T04:53:13;1.70;;;1.60;;
40595;SDS011;26304;48.794;9.820;2024-01-07T04:55:37;1.73;;;1.63;;
40595;SDS011;26304;48.794;9.820;2024-01-07T04:57:59;2.05;;;1.77;;
40595;SDS011;26304;48.794;9.820;2024-01-07T05:00:22;1.50;;;1.40;;
40595;SDS011;26304;48.794;9.820;2024-01-07T05:02:44;1.65;;;1.55;;
40595;SDS011;26304;48.794;9.820;2024-01-07T05:05:07;1.70;;;1.60;;
40595;SDS011;26304;48.794;9.820;2024-01-07T05:07:30;1.50;;;1.40;;
40595;SDS011;26304;48.794;9.820;2024-01-07T05:09:53;1.42;;;1.30;;
40595;SDS011;26304;48.794;9.820;2024-01-07T05:12:17;1.60;;;1.50;;
40595;SDS011;26304;48.794;9.820;2024-01-07T05:14:40;1.85;;;1.67;;
40595;SDS011;26304;48.794;9.820;2024-01-07T05:17:03;1.65;;;1.55;;
40595;SDS011;26304;48.794;9.820;2024-01-07T05:19:26;1.50;;;1.40;;
40595;SDS011;26304;48.794;9.820;2024-01-07T05:21:49;1.45;;;1.35;;
40595;SDS011;26304;48.794;9.820;2024-01-07T05:24:11;1.70;;;1.60;;
40595;SDS011;26304;48.794;9.820;2024-01-07T05:26:37;2.05;;;1.30;;
40595;SDS011;26304;48.794;9.820;2024-01-07T05:29:02;1.60;;;1.50;;
40595;SDS011;26304;48.794;9.820;2024-01-07T05:31:25;1.73;;;1.63;;
40595;SDS011;26304;48.794;9.820;2024-01-07T05:33:47;1.45;;;1.35;;
40595;SDS011;26304;48.794;9.820;2024-01-07T05:36:10;1.48;;;1.38;;
40595;SDS011;26304;48.794;9.820;2024-01-07T05:38:32;1.38;;;1.27;;
40595;SDS011;26304;48.794;9.820;2024-01-07T05:40:55;1.40;;;1.30;;
40595;SDS011;26304;48.794;9.820;2024-01-07T05:43:17;1.13;;;1.08;;
40595;SDS011;26304;48.794;9.820;2024-01-07T05:45:41;1.27;;;1.17;;
40595;SDS011;26304;48.794;9.820;2024-01-07T05:48:04;1.10;;;1.10;;
40595;SDS011;26304;48.794;9.820;2024-01-07T05:50:27;1.60;;;1.50;;
40595;SDS011;26304;48.794;9.820;2024-01-07T05:52:49;1.80;;;1.30;;
40595;SDS011;26304;48.794;9.820;2024-01-07T05:55:11;1.30;;;1.20;;
40595;SDS011;26304;48.794;9.820;2024-01-07T05:57:34;1.50;;;1.38;;
40595;SDS011;26304;48.794;9.820;2024-01-07T05:59:56;1.30;;;1.20;;
40595;SDS011;26304;48.794;9.820;2024-01-07T06:02:20;1.10;;;1.10;;
40595;SDS011;26304;48.794;9.820;2024-01-07T06:04:43;1.65;;;1.25;;
40595;SDS011;26304;48.794;9.820;2024-01-07T06:07:06;1.20;;;1.10;;
40595;SDS011;26304;48.794;9.820;2024-01-07T06:09:29;2.05;;;1.20;;
40595;SDS011;26304;48.794;9.820;2024-01-07T06:11:51;1.65;;;1.30;;
40595;SDS011;26304;48.794;9.820;2024-01-07T06:14:14;2.20;;;1.25;;
40595;SDS011;26304;48.794;9.820;2024-01-07T06:16:36;3.28;;;1.30;;
40595;SDS011;26304;48.794;9.820;2024-01-07T06:19:00;1.40;;;1.30;;
40595;SDS011;26304;48.794;9.820;2024-01-07T06:21:24;1.50;;;1.25;;
40595;SDS011;26304;48.794;9.820;2024-01-07T06:23:46;2.42;;;1.40;;
40595;SDS011;26304;48.794;9.820;2024-01-07T06:26:09;2.22;;;1.30;;
40595;SDS011;26304;48.794;9.820;2024-01-07T06:28:31;1.60;;;1.17;;
40595;SDS011;26304;48.794;9.820;2024-01-07T06:30:54;4.35;;;1.60;;
40595;SDS011;26304;48.794;9.820;2024-01-07T06:33:16;1.70;;;1.40;;
40595;SDS011;26304;48.794;9.820;2024-01-07T06:35:40;1.38;;;1.27;;
40595;SDS011;26304;48.794;9.820;2024-01-07T06:38:03;1.95;;;1.55;;
40595;SDS011;26304;48.794;9.820;2024-01-07T06:40:26;2.35;;;1.63;;
40595;SDS011;26304;48.794;9.820;2024-01-07T06:42:48;2.33;;;1.70;;
40595;SDS011;26304;48.794;9.820;2024-01-07T06:45:11;1.95;;;1.77;;
40595;SDS011;26304;48.794;9.820;2024-01-07T06:47:35;2.03;;;1.63;;
40595;SDS011;26304;48.794;9.820;2024-01-07T06:49:57;2.05;;;1.60;;
40595;SDS011;26304;48.794;9.820;2024-01-07T06:52:21;2.60;;;1.80;;
40595;SDS011;26304;48.794;9.820;2024-01-07T06:54:44;4.55;;;1.58;;
40595;SDS011;26304;48.794;9.820;2024-01-07T06:57:06;3.13;;;1.25;;
40595;SDS011;26304;48.794;9.820;2024-01-07T06:59:29;1.88;;;1.60;;
40595;SDS011;26304;48.794;9.820;2024-01-07T07:01:51;1.83;;;1.50;;
40595;SDS011;26304;48.794;9.820;2024-01-07T07:04:16;1.55;;;1.40;;
40595;SDS011;26304;48.794;9.820;2024-01-07T07:06:38;3.13;;;1.52;;
40595;SDS011;26304;48.794;9.820;2024-01-07T07:09:03;3.10;;;1.60;;
40595;SDS011;26304;48.794;9.820;2024-01-07T07:11:26;3.08;;;1.52;;
40595;SDS011;26304;48.794;9.820;2024-01-07T07:13:48;1.75;;;1.40;;
40595;SDS011;26304;48.794;9.820;2024-01-07T07:16:11;1.65;;;1.50;;
40595;SDS011;26304;48.794;9.820;2024-01-07T07:18:34;1.30;;;1.20;;
40595;SDS011;26304;48.794;9.820;2024-01-07T07:20:56;1.67;;;1.35;;
40595;SDS011;26304;48.794;9.820;2024-01-07T07:23:19;1.88;;;1.30;;
40595;SDS011;26304;48.794;9.820;2024-01-07T07:25:43;2.38;;;1.40;;
40595;SDS011;26304;48.794;9.820;2024-01-07T07:28:05;1.95;;;1.40;;
40595;SDS011;26304;48.794;9.820;2024-01-07T07:30:28;1.65;;;1.52;;
40595;SDS011;26304;48.794;9.820;2024-01-07T07:32:51;3.13;;;1.55;;
40595;SDS011;26304;48.794;9.820;2024-01-07T07:35:14;1.38;;;1.27;;
40595;SDS011;26304;48.794;9.820;2024-01-07T07:37:37;1.83;;;1.73;;
40595;SDS011;26304;48.794;9.820;2024-01-07T07:39:59;1.88;;;1.45;;
40595;SDS011;26304;48.794;9.820;2024-01-07T07:42:23;1.42;;;1.33;;
40595;SDS011;26304;48.794;9.820;2024-01-07T07:44:46;1.98;;;1.35;;
40595;SDS011;26304;48.794;9.820;2024-01-07T07:47:09;1.38;;;1.27;;
40595;SDS011;26304;48.794;9.820;2024-01-07T07:49:32;1.70;;;1.60;;
40595;SDS011;26304;48.794;9.820;2024-01-07T07:51:55;1.70;;;1.60;;
40595;SDS011;26304;48.794;9.820;2024-01-07T07:54:18;1.35;;;1.25;;
40595;SDS011;26304;48.794;9.820;2024-01-07T07:56:41;1.52;;;1.27;;
40595;SDS011;26304;48.794;9.820;2024-01-07T07:59:05;1.77;;;1.67;;
40595;SDS011;26304;48.794;9.820;2024-01-07T08:01:29;1.48;;;1.38;;
40595;SDS011;26304;48.794;9.820;2024-01-07T08:03:52;1.45;;;1.35;;
40595;SDS011;26304;48.794;9.820;2024-01-07T08:06:15;1.35;;;1.25;;
40595;SDS011;26304;48.794;9.820;2024-01-07T08:08:38;1.65;;;1.42;;
40595;SDS011;26304;48.794;9.820;2024-01-07T08:11:00;1.80;;;1.70;;
40595;SDS011;26304;48.794;9.820;2024-01-07T08:13:23;1.45;;;1.30;;
40595;SDS011;26304;48.794;9.820;2024-01-07T08:15:47;2.28;;;1.50;;
40595;SDS011;26304;48.794;9.820;2024-01-07T08:18:10;1.73;;;1.63;;
40595;SDS011;26304;48.794;9.820;2024-01-07T08:20:32;1.70;;;1.60;;
40595;SDS011;26304;48.794;9.820;2024-01-07T08:22:55;1.52;;;1.42;;
40595;SDS011;26304;48.794;9.820;2024-01-07T08:25:17;2.75;;;1.75;;
40595;SDS011;26304;48.794;9.820;2024-01-07T08:27:40;2.40;;;1.73;;
40595;SDS011;26304;48.794;9.820;2024-01-07T08:30:05;3.22;;;3.03;;
40595;SDS011;26304;48.794;9.820;2024-01-07T08:32:34;4.22;;;3.92;;
40595;SDS011;26304;48.794;9.820;2024-01-07T08:34:57;4.88;;;4.47;;
40595;SDS011;26304;48.794;9.820;2024-01-07T08:37:19;5.68;;;5.28;;
40595;SDS011;26304;48.794;9.820;2024-01-07T08:39:42;5.70;;;5.30;;
40595;SDS011;26304;48.794;9.820;2024-01-07T08:42:05;6.13;;;5.65;;
40595;SDS011;26304;48.794;9.820;2024-01-07T08:44:27;6.18;;;5.68;;
40595;SDS011;26304;48.794;9.820;2024-01-07T08:46:50;6.07;;;5.63;;
40595;SDS011;26304;48.794;9.820;2024-01-07T08:49:14;6.88;;;6.28;;
40595;SDS011;26304;48.794;9.820;2024-01-07T08:51:37;6.60;;;6.00;;
40595;SDS011;26304;48.794;9.820;2024-01-07T08:53:59;6.80;;;6.28;;
40595;SDS011;26304;48.794;9.820;2024-01-07T08:56:22;6.90;;;6.30;;
40595;SDS011;26304;48.794;9.820;2024-01-07T08:58:45;6.40;;;5.80;;
40595;SDS011;26304;48.794;9.820;2024-01-07T09:01:07;6.60;;;6.00;;
40595;SDS011;26304;48.794;9.820;2024-01-07T09:03:30;5.65;;;5.15;;
40595;SDS011;26304;48.794;9.820;2024-01-07T09:05:54;5.80;;;5.40;;
40595;SDS011;26304;48.794;9.820;2024-01-07T09:08:17;6.10;;;5.53;;
40595;SDS011;26304;48.794;9.820;2024-01-07T09:10:40;6.15;;;5.55;;
40595;SDS011;26304;48.794;9.820;2024-01-07T09:13:03;5.38;;;4.97;;
40595;SDS011;26304;48.794;9.820;2024-01-07T09:15:25;6.50;;;6.00;;
40595;SDS011;26304;48.794;9.820;2024-01-07T09:17:48;6.18;;;5.68;;
40595;SDS011;26304;48.794;9.820;2024-01-07T09:20:11;5.25;;;4.82;;
40595;SDS011;26304;48.794;9.820;2024-01-07T09:22:35;4.78;;;4.38;;
40595;SDS011;26304;48.794;9.820;2024-01-07T09:24:58;4.90;;;4.50;;
40595;SDS011;26304;48.794;9.820;2024-01-07T09:27:20;4.68;;;4.22;;
40595;SDS011;26304;48.794;9.820;2024-01-07T09:29:43;4.32;;;4.03;;
40595;SDS011;26304;48.794;9.820;2024-01-07T09:32:06;4.35;;;3.92;;
40595;SDS011;26304;48.794;9.820;2024-01-07T09:34:28;4.60;;;4.30;;
40595;SDS011;26304;48.794;9.820;2024-01-07T09:36:51;4.18;;;3.88;;
40595;SDS011;26304;48.794;9.820;2024-01-07T09:39:15;4.13;;;3.83;;
40595;SDS011;26304;48.794;9.820;2024-01-07T09:41:38;4.00;;;3.60;;
40595;SDS011;26304;48.794;9.820;2024-01-07T09:44:01;3.88;;;3.58;;
40595;SDS011;26304;48.794;9.820;2024-01-07T09:46:24;3.65;;;3.35;;
40595;SDS011;26304;48.794;9.820;2024-01-07T09:48:47;4.38;;;3.80;;
40595;SDS011;26304;48.794;9.820;2024-01-07T09:51:10;4.25;;;3.95;;
40595;SDS011;26304;48.794;9.820;2024-01-07T09:53:33;3.45;;;3.15;;
40595;SDS011;26304;48.794;9.820;2024-01-07T09:56:04;4.22;;;3.72;;
40595;SDS011;26304;48.794;9.820;2024-01-07T09:58:34;3.70;;;3.40;;
40595;SDS011;26304;48.794;9.820;2024-01-07T10:00:57;3.70;;;3.40;;
40595;SDS011;26304;48.794;9.820;2024-01-07T10:03:19;3.58;;;3.28;;
40595;SDS011;26304;48.794;9.820;2024-01-07T10:05:42;3.28;;;2.97;;
40595;SDS011;26304;48.794;9.820;2024-01-07T10:08:05;3.25;;;3.05;;
40595;SDS011;26304;48.794;9.820;2024-01-07T10:10:28;3.25;;;3.00;;
40595;SDS011;26304;48.794;9.820;2024-01-07T10:12:52;3.17;;;2.97;;
40595;SDS011;26304;48.794;9.820;2024-01-07T10:15:17;3.53;;;3.22;;
40595;SDS011;26304;48.794;9.820;2024-01-07T10:17:41;3.65;;;3.35;;
40595;SDS011;26304;48.794;9.820;2024-01-07T10:20:04;3.35;;;3.15;;
40595;SDS011;26304;48.794;9.820;2024-01-07T10:22:30;4.40;;;3.22;;
40595;SDS011;26304;48.794;9.820;2024-01-07T10:24:53;3.67;;;3.38;;
40595;SDS011;26304;48.794;9.820;2024-01-07T10:27:16;3.80;;;3.25;;
40595;SDS011;26304;48.794;9.820;2024-01-07T10:29:40;3.58;;;3.28;;
40595;SDS011;26304;48.794;9.820;2024-01-07T10:32:04;3.90;;;3.38;;
40595;SDS011;26304;48.794;9.820;2024-01-07T10:34:27;6.80;;;3.30;;
40595;SDS011;26304;48.794;9.820;2024-01-07T10:36:51;4.50;;;3.22;;
40595;SDS011;26304;48.794;9.820;2024-01-07T10:39:17;4.68;;;3.50;;
40595;SDS011;26304;48.794;9.820;2024-01-07T10:41:39;3.28;;;2.97;;
40595;SDS011;26304;48.794;9.820;2024-01-07T10:44:03;3.47;;;3.17;;
40595;SDS011;26304;48.794;9.820;2024-01-07T10:46:27;3.60;;;3.30;;
40595;SDS011;26304;48.794;9.820;2024-01-07T10:48:53;7.03;;;3.50;;
40595;SDS011;26304;48.794;9.820;2024-01-07T10:51:20;4.72;;;3.20;;
40595;SDS011;26304;48.794;9.820;2024-01-07T10:53:43;5.05;;;3.20;;
40595;SDS011;26304;48.794;9.820;2024-01-07T10:56:14;3.80;;;3.40;;
40595;SDS011;26304;48.794;9.820;2024-01-07T10:58:40;5.15;;;3.17;;
40595;SDS011;26304;48.794;9.820;2024-01-07T11:01:04;3.67;;;3.38;;
40595;SDS011;26304;48.794;9.820;2024-01-07T11:03:31;4.22;;;3.83;;
40595;SDS011;26304;48.794;9.820;2024-01-07T11:06:00;3.88;;;3.53;;
40595;SDS011;26304;48.794;9.820;2024-01-07T11:08:31;4.35;;;3.20;;
40595;SDS011;26304;48.794;9.820;2024-01-07T11:11:03;5.20;;;3.40;;
40595;SDS011;26304;48.794;9.820;2024-01-07T11:13:34;4.05;;;3.45;;
40595;SDS011;26304;48.794;9.820;2024-01-07T11:15:56;4.20;;;3.80;;
40595;SDS011;26304;48.794;9.820;2024-01-07T11:18:18;4.32;;;3.92;;
40595;SDS011;26304;48.794;9.820;2024-01-07T11:20:43;3.83;;;3.53;;
40595;SDS011;26304;48.794;9.820;2024-01-07T11:23:26;4.88;;;3.75;;
40595;SDS011;26304;48.794;9.820;2024-01-07T11:25:53;4.43;;;3.47;;
40595;SDS011;26304;48.794;9.820;2024-01-07T11:28:18;3.63;;;3.30;;
40595;SDS011;26304;48.794;9.820;2024-01-07T11:31:04;3.58;;;3.30;;
40595;SDS011;26304;48.794;9.820;2024-01-07T11:33:27;4.13;;;3.72;;
40595;SDS011;26304;48.794;9.820;2024-01-07T11:35:59;4.38;;;3.88;;
40595;SDS011;26304;48.794;9.820;2024-01-07T11:38:24;4.15;;;3.80;;
40595;SDS011;26304;48.794;9.820;2024-01-07T11:40:47;3.85;;;3.55;;
40595;SDS011;26304;48.794;9.820;2024-01-07T11:43:14;3.72;;;3.42;;
40595;SDS011;26304;48.794;9.820;2024-01-07T11:45:37;3.80;;;3.50;;
40595;SDS011;26304;48.794;9.820;2024-01-07T11:48:00;3.90;;;3.55;;
40595;SDS011;26304;48.794;9.820;2024-01-07T11:50:23;3.70;;;3.40;;
40595;SDS011;26304;48.794;9.820;2024-01-07T11:52:50;3.70;;;3.47;;
40595;SDS011;26304;48.794;9.820;2024-01-07T11:55:13;3.67;;;3.40;;
40595;SDS011;26304;48.794;9.820;2024-01-07T11:57:37;3.60;;;3.30;;
40595;SDS011;26304;48.794;9.820;2024-01-07T12:00:00;3.75;;;3.40;;
40595;SDS011;26304;48.794;9.820;2024-01-07T12:02:24;3.88;;;3.58;;
40595;SDS011;26304;48.794;9.820;2024-01-07T12:04:51;3.95;;;3.53;;
40595;SDS011;26304;48.794;9.820;2024-01-07T12:07:13;3.63;;;3.33;;
40595;SDS011;26304;48.794;9.820;2024-01-07T12:09:37;3.70;;;3.40;;
40595;SDS011;26304;48.794;9.820;2024-01-07T12:12:00;3.58;;;3.35;;
40595;SDS011;26304;48.794;9.820;2024-01-07T12:14:26;4.03;;;3.72;;
40595;SDS011;26304;48.794;9.820;2024-01-07T12:16:48;3.97;;;3.67;;
40595;SDS011;26304;48.794;9.820;2024-01-07T12:19:11;3.83;;;3.63;;
40595;SDS011;26304;48.794;9.820;2024-01-07T12:21:34;3.65;;;3.38;;
40595;SDS011;26304;48.794;9.820;2024-01-07T12:23:57;4.00;;;3.70;;
40595;SDS011;26304;48.794;9.820;2024-01-07T12:26:21;4.40;;;4.10;;
40595;SDS011;26304;48.794;9.820;2024-01-07T12:28:52;4.00;;;3.70;;
40595;SDS011;26304;48.794;9.820;2024-01-07T12:31:15;4.30;;;3.60;;
40595;SDS011;26304;48.794;9.820;2024-01-07T12:33:38;3.88;;;3.58;;
40595;SDS011;26304;48.794;9.820;2024-01-07T12:36:02;4.43;;;4.03;;
40595;SDS011;26304;48.794;9.820;2024-01-07T12:38:25;4.05;;;3.75;;
40595;SDS011;26304;48.794;9.820;2024-01-07T12:40:47;4.95;;;4.28;;
40595;SDS011;26304;48.794;9.820;2024-01-07T12:43:11;4.30;;;3.92;;
40595;SDS011;26304;48.794;9.820;2024-01-07T12:45:34;4.15;;;3.85;;
40595;SDS011;26304;48.794;9.820;2024-01-07T12:47:57;4.32;;;4.03;;
40595;SDS011;26304;48.794;9.820;2024-01-07T12:50:23;4.55;;;4.20;;
40595;SDS011;26304;48.794;9.820;2024-01-07T12:52:49;4.15;;;3.85;;
40595;SDS011;26304;48.794;9.820;2024-01-07T12:55:11;4.05;;;3.65;;
40595;SDS011;26304;48.794;9.820;2024-01-07T12:57:34;4.68;;;4.28;;
40595;SDS011;26304;48.794;9.820;2024-01-07T12:59:58;4.45;;;4.10;;
40595;SDS011;26304;48.794;9.820;2024-01-07T13:02:21;4.30;;;4.00;;
40595;SDS011;26304;48.794;9.820;2024-01-07T13:04:44;5.03;;;4.63;;
40595;SDS011;26304;48.794;9.820;2024-01-07T13:07:07;4.35;;;4.05;;
40595;SDS011;26304;48.794;9.820;2024-01-07T13:09:29;4.85;;;4.45;;
40595;SDS011;26304;48.794;9.820;2024-01-07T13:11:52;4.50;;;4.20;;
40595;SDS011;26304;48.794;9.820;2024-01-07T13:14:14;5.32;;;4.93;;
40595;SDS011;26304;48.794;9.820;2024-01-07T13:16:39;4.45;;;4.15;;
40595;SDS011;26304;48.794;9.820;2024-01-07T13:19:01;4.53;;;4.20;;
40595;SDS011;26304;48.794;9.820;2024-01-07T13:21:25;4.43;;;4.13;;
40595;SDS011;26304;48.794;9.820;2024-01-07T13:23:47;4.97;;;4.57;;
40595;SDS011;26304;48.794;9.820;2024-01-07T13:26:10;4.65;;;4.25;;
40595;SDS011;26304;48.794;9.820;2024-01-07T13:28:33;4.75;;;4.38;;
40595;SDS011;26304;48.794;9.820;2024-01-07T13:30:55;5.20;;;4.80;;
40595;SDS011;26304;48.794;9.820;2024-01-07T13:33:19;4.97;;;4.60;;
40595;SDS011;26304;48.794;9.820;2024-01-07T13:35:42;5.18;;;4.70;;
40595;SDS011;26304;48.794;9.820;2024-01-07T13:38:05;5.50;;;5.10;;
40595;SDS011;26304;48.794;9.820;2024-01-07T13:40:28;5.10;;;4.60;;
40595;SDS011;26304;48.794;9.820;2024-01-07T13:42:50;5.00;;;4.53;;
40595;SDS011;26304;48.794;9.820;2024-01-07T13:45:14;4.65;;;4.30;;
40595;SDS011;26304;48.794;9.820;2024-01-07T13:47:37;5.18;;;4.70;;
40595;SDS011;26304;48.794;9.820;2024-01-07T13:50:01;4.72;;;4.32;;
40595;SDS011;26304;48.794;9.820;2024-01-07T13:52:24;5.18;;;4.55;;
40595;SDS011;26304;48.794;9.820;2024-01-07T13:54:47;4.90;;;4.50;;
40595;SDS011;26304;48.794;9.820;2024-01-07T13:57:09;4.82;;;4.43;;
40595;SDS011;26304;48.794;9.820;2024-01-07T13:59:33;4.40;;;4.00;;
40595;SDS011;26304;48.794;9.820;2024-01-07T14:01:56;7.78;;;4.22;;
40595;SDS011;26304;48.794;9.820;2024-01-07T14:04:20;4.72;;;4.32;;
40595;SDS011;26304;48.794;9.820;2024-01-07T14:06:44;6.57;;;4.65;;
40595;SDS011;26304;48.794;9.820;2024-01-07T14:09:07;6.65;;;4.78;;
40595;SDS011;26304;48.794;9.820;2024-01-07T14:11:30;4.55;;;3.97;;
40595;SDS011;26304;48.794;9.820;2024-01-07T14:13:53;4.55;;;4.07;;
40595;SDS011;26304;48.794;9.820;2024-01-07T14:16:15;4.38;;;4.03;;
40595;SDS011;26304;48.794;9.820;2024-01-07T14:18:38;4.05;;;3.67;;
40595;SDS011;26304;48.794;9.820;2024-01-07T14:21:00;6.50;;;4.40;;
40595;SDS011;26304;48.794;9.820;2024-01-07T14:23:24;6.07;;;4.50;;